Time;durP1;ratioP1;P1;durP2;ratioP2;P2;SDS_P1;SDS_P2;PMS_P1;PMS_P2;Temp;Humidity;BMP_temperature;BMP_pressure;BME280_temperature;BME280_humidity;BME280_pressure;Samples;Min_cycle;Max_cycle;Signal;HPM_P1;HPM_P2
2023/08/01 00:01:58;;;;;;;10.40;4.20;;;;;;;19.13;65.72;98345.05;223755;181;137493;-61
2023/08/01 00:07:04;;;;;;;10.60;4.00;;;;;;;19.07;65.88;98341.88;223584;181;146747;-61
2023/08/01 00:12:07;;;;;;;8.70;3.90;;;;;;;19.02;66.12;98330.44;223654;181;140767;-62
2023/08/01 00:17:10;;;;;;;6.90;3.70;;;;;;;18.97;66.13;98324.16;223611;181;137943;-62
2023/08/01 00:22:14;;;;;;;6.10;3.00;;;;;;;18.93;65.96;98324.69;223604;181;146309;-61
2023/08/01 00:27:17;;;;;;;6.30;3.60;;;;;;;18.93;65.95;98315.56;223428;181;139988;-61
2023/08/01 00:32:21;;;;;;;11.70;3.80;;;;;;;18.94;65.84;98312.05;223606;181;136332;-62
2023/08/01 00:37:24;;;;;;;7.10;3.20;;;;;;;18.91;65.82;98303.35;223462;182;147799;-62
2023/08/01 00:42:28;;;;;;;9.30;4.20;;;;;;;18.85;65.85;98300.73;223531;181;139078;-63
2023/08/01 00:47:31;;;;;;;9.30;3.40;;;;;;;18.82;66.18;98291.05;223569;181;137507;-63
2023/08/01 00:52:35;;;;;;;10.90;3.60;;;;;;;18.77;66.27;98289.86;223573;182;145907;-62
2023/08/01 00:57:38;;;;;;;10.30;3.70;;;;;;;18.70;66.34;98274.69;223460;181;141536;-62
2023/08/01 01:02:42;;;;;;;8.60;3.80;;;;;;;18.64;66.62;98271.92;223484;182;137477;-62
2023/08/01 01:07:45;;;;;;;7.00;3.20;;;;;;;18.57;66.61;98264.10;223453;181;145934;-62
2023/08/01 01:12:50;;;;;;;7.50;3.40;;;;;;;18.52;66.93;98259.23;223541;181;140074;-60
2023/08/01 01:17:53;;;;;;;7.50;4.00;;;;;;;18.52;67.06;98253.11;223505;181;137734;-62
2023/08/01 01:27:12;;;;;;;8.90;4.20;;;;;;;18.56;67.30;98241.39;222209;190;677657;-64
2023/08/01 01:32:16;;;;;;;7.70;3.30;;;;;;;18.48;67.35;98226.12;222900;187;137729;-64
2023/08/01 01:37:19;;;;;;;8.70;4.00;;;;;;;18.42;67.36;98219.66;223275;184;145048;-63
2023/08/01 01:42:23;;;;;;;8.40;4.10;;;;;;;18.37;67.32;98213.71;223196;184;138889;-64
2023/08/01 01:47:26;;;;;;;10.00;4.00;;;;;;;18.32;67.35;98202.34;223270;184;138965;-61
2023/08/01 01:52:29;;;;;;;7.30;3.90;;;;;;;18.27;67.58;98196.51;223278;184;144651;-61
2023/08/01 01:57:36;;;;;;;9.40;3.90;;;;;;;18.23;67.80;98180.81;223209;183;140956;-61
2023/08/01 02:02:39;;;;;;;8.30;3.70;;;;;;;18.26;67.61;98181.01;223209;180;137637;-66
2023/08/01 02:07:42;;;;;;;5.90;3.50;;;;;;;18.27;67.39;98172.80;223120;184;144521;-61
2023/08/01 02:12:47;;;;;;;6.50;4.00;;;;;;;18.27;67.06;98166.51;223540;182;139119;-64
2023/08/01 02:17:51;;;;;;;7.70;4.10;;;;;;;18.30;67.09;98167.27;223564;181;136117;-67
2023/08/01 02:22:54;;;;;;;9.50;3.70;;;;;;;18.27;67.08;98161.49;223531;182;145565;-61
2023/08/01 02:27:57;;;;;;;7.50;4.50;;;;;;;18.25;67.17;98153.30;223493;182;139602;-61
2023/08/01 02:33:01;;;;;;;6.50;3.60;;;;;;;18.25;67.03;98149.24;223364;182;137862;-63
2023/08/01 02:38:05;;;;;;;13.00;4.10;;;;;;;18.16;66.95;98143.96;223543;182;145734;-61
2023/08/01 02:43:10;;;;;;;9.30;4.10;;;;;;;18.07;67.07;98140.70;223458;182;138893;-61
2023/08/01 02:48:13;;;;;;;7.20;4.00;;;;;;;18.01;67.17;98141.73;223553;183;136363;-62
2023/08/01 02:53:17;;;;;;;8.90;3.80;;;;;;;17.98;67.32;98138.10;223424;182;146465;-64
2023/08/01 02:58:20;;;;;;;6.30;3.70;;;;;;;18.00;67.17;98134.13;223514;182;139541;-62
2023/08/01 03:03:23;;;;;;;7.80;3.90;;;;;;;18.01;67.19;98135.25;223506;182;138011;-62
2023/08/01 03:08:27;;;;;;;9.40;3.70;;;;;;;17.99;67.00;98130.83;223427;183;146127;-62
2023/08/01 03:13:31;;;;;;;6.20;3.90;;;;;;;17.93;67.07;98119.75;223510;183;140326;-61
2023/08/01 03:18:37;;;;;;;8.60;3.80;;;;;;;17.87;67.42;98108.27;223516;183;137534;-62
2023/08/01 03:23:41;;;;;;;7.70;3.60;;;;;;;17.81;67.60;98106.70;223438;182;146015;-62
2023/08/01 03:28:44;;;;;;;7.00;3.70;;;;;;;17.74;67.66;98107.61;223474;182;139436;-62
2023/08/01 03:33:48;;;;;;;8.00;4.00;;;;;;;17.67;67.86;98101.67;223503;182;137305;-62
2023/08/01 03:38:51;;;;;;;6.30;3.40;;;;;;;17.64;67.93;98098.20;223376;182;146742;-62
2023/08/01 03:43:54;;;;;;;8.50;3.70;;;;;;;17.68;68.30;98098.89;223422;182;139274;-62
2023/08/01 03:48:58;;;;;;;6.90;3.80;;;;;;;17.78;68.33;98099.10;223490;183;137792;-61
2023/08/01 03:54:01;;;;;;;8.10;3.40;;;;;;;17.91;68.48;98093.87;223256;182;145916;-61
2023/08/01 03:59:16;;;;;;;7.10;3.90;;;;;;;18.01;68.32;98083.01;223363;182;139577;-62
2023/08/01 04:04:20;;;;;;;8.00;4.20;;;;;;;18.09;68.29;98081.38;223372;182;136203;-62
2023/08/01 04:09:23;;;;;;;7.30;4.00;;;;;;;18.17;68.38;98078.15;223416;182;146266;-60
2023/08/01 04:14:28;;;;;;;7.30;4.20;;;;;;;18.26;68.17;98081.39;223563;182;139791;-61
2023/08/01 04:19:31;;;;;;;7.60;3.80;;;;;;;18.30;67.85;98081.97;223535;183;137473;-61
2023/08/01 04:24:34;;;;;;;6.70;3.70;;;;;;;18.35;67.98;98079.30;223454;182;150103;-60
2023/08/01 04:29:38;;;;;;;6.80;3.40;;;;;;;18.42;67.81;98072.20;223350;183;138549;-62
2023/08/01 04:34:41;;;;;;;8.00;4.10;;;;;;;18.54;67.62;98068.36;223461;182;137555;-66
2023/08/01 04:39:45;;;;;;;8.10;4.40;;;;;;;18.69;67.34;98063.84;223596;182;146653;-61
2023/08/01 04:44:48;;;;;;;12.60;4.60;;;;;;;18.83;67.09;98063.58;223355;183;138960;-64
2023/08/01 04:49:51;;;;;;;12.50;5.20;;;;;;;18.96;66.51;98052.92;223488;182;136876;-68
2023/08/01 04:54:55;;;;;;;11.20;4.80;;;;;;;19.06;66.13;98048.01;223280;182;146431;-66
2023/08/01 04:59:59;;;;;;;12.70;4.90;;;;;;;19.12;66.03;98042.73;223327;182;139941;-66
2023/08/01 05:05:03;;;;;;;10.50;4.30;;;;;;;19.15;65.80;98040.31;223499;182;138664;-63
2023/08/01 05:10:07;;;;;;;11.90;4.50;;;;;;;19.20;65.80;98039.88;223468;182;146228;-70
2023/08/01 05:15:10;;;;;;;13.00;5.20;;;;;;;19.25;66.03;98033.88;223322;182;139105;-63
2023/08/01 05:20:15;;;;;;;17.00;4.50;;;;;;;19.33;65.97;98032.52;223511;182;137462;-64
2023/08/01 05:25:18;;;;;;;16.80;4.40;;;;;;;19.50;65.72;98027.18;223552;182;146074;-63
2023/08/01 05:30:21;;;;;;;18.00;4.60;;;;;;;19.72;65.44;98024.02;223374;182;138731;-64
2023/08/01 05:35:25;;;;;;;20.20;4.60;;;;;;;19.91;64.78;98016.13;223552;182;137695;-62
2023/08/01 05:40:28;;;;;;;15.60;4.60;;;;;;;20.05;64.79;98017.55;223552;182;147495;-62
2023/08/01 05:45:38;;;;;;;15.90;4.70;;;;;;;20.20;64.90;98015.98;223440;182;139021;-63
2023/08/01 05:50:41;;;;;;;16.30;4.90;;;;;;;20.36;64.53;98010.52;223497;182;138559;-62
2023/08/01 05:55:44;;;;;;;19.30;5.00;;;;;;;20.54;64.41;98012.11;223319;182;146865;-64
2023/08/01 06:00:47;;;;;;;20.60;12.50;;;;;;;20.71;64.01;98006.84;223472;182;138673;-62
2023/08/01 06:05:50;;;;;;;8.00;3.80;;;;;;;20.89;61.94;97997.81;223449;182;137826;-63
2023/08/01 06:10:54;;;;;;;8.50;3.80;;;;;;;21.07;60.66;98002.75;223467;182;145860;-63
2023/08/01 06:15:57;;;;;;;8.10;3.50;;;;;;;21.23;59.93;97999.09;223495;182;142446;-64
2023/08/01 06:21:02;;;;;;;77.60;54.90;;;;;;;21.50;60.19;98003.00;223462;182;139796;-63
2023/08/01 06:26:05;;;;;;;20.50;10.20;;;;;;;21.66;59.12;97998.89;223487;182;145789;-62
2023/08/01 06:31:08;;;;;;;9.50;3.40;;;;;;;21.73;57.98;97993.59;223291;182;139380;-66
2023/08/01 06:36:12;;;;;;;8.40;2.70;;;;;;;21.83;57.34;97990.23;223373;182;138143;-65
2023/08/01 06:41:19;;;;;;;12.00;5.40;;;;;;;21.96;57.14;97983.40;223428;182;145438;-65
2023/08/01 06:46:22;;;;;;;7.00;2.60;;;;;;;22.07;55.91;97983.64;223426;182;139139;-64
2023/08/01 06:51:26;;;;;;;8.20;2.60;;;;;;;22.10;54.94;97982.61;223467;182;137721;-60
2023/08/01 06:56:29;;;;;;;4.10;2.20;;;;;;;22.18;54.79;97977.91;223537;182;145416;-63
2023/08/01 07:01:33;;;;;;;6.30;2.10;;;;;;;22.26;54.39;97975.41;223314;182;140080;-61
2023/08/01 07:06:36;;;;;;;12.50;9.60;;;;;;;22.38;54.24;97971.71;223451;182;136794;-63
2023/08/01 07:11:39;;;;;;;4.50;2.30;;;;;;;22.44;53.70;97975.27;223508;182;145473;-66
2023/08/01 07:16:43;;;;;;;6.10;2.30;;;;;;;22.47;53.47;97968.48;223452;181;138925;-62
2023/08/01 07:21:47;;;;;;;5.40;2.60;;;;;;;22.49;53.36;97967.92;223434;183;137732;-65
2023/08/01 07:26:51;;;;;;;4.10;2.00;;;;;;;22.50;52.98;97973.09;223526;182;145834;-65
2023/08/01 07:31:55;;;;;;;14.40;10.20;;;;;;;22.49;53.16;97968.09;223423;183;140137;-66
2023/08/01 07:36:58;;;;;;;6.30;2.80;;;;;;;22.48;53.08;97971.04;223533;182;137396;-67
2023/08/01 07:42:02;;;;;;;10.70;2.70;;;;;;;22.52;53.10;97969.20;223424;181;146576;-64
2023/08/01 07:47:05;;;;;;;5.90;2.40;;;;;;;22.55;53.38;97970.30;223393;182;138972;-65
2023/08/01 07:52:08;;;;;;;4.10;2.20;;;;;;;22.63;53.80;97957.63;223454;182;137570;-67
2023/08/01 07:57:14;;;;;;;;;;;;;;;22.72;53.77;97957.39;223243;181;146186;-67
2023/08/01 08:02:17;;;;;;;6.70;2.60;;;;;;;22.78;54.07;97950.50;223424;182;140300;-67
2023/08/01 08:07:20;;;;;;;8.80;2.90;;;;;;;22.84;54.29;97938.80;223409;182;137672;-68
2023/08/01 08:12:23;;;;;;;4.70;2.50;;;;;;;22.95;53.95;97935.23;223444;181;146085;-64
2023/08/01 08:17:26;;;;;;;7.20;2.70;;;;;;;22.99;53.92;97931.23;223432;182;139262;-69
2023/08/01 08:22:30;;;;;;;5.00;2.70;;;;;;;23.04;53.98;97933.34;223448;182;137629;-62
2023/08/01 08:27:33;;;;;;;207.10;163.70;;;;;;;23.14;53.93;97931.85;223397;181;145872;-61
2023/08/01 08:32:37;;;;;;;16.20;11.00;;;;;;;23.24;53.88;97924.37;223475;182;138584;-61
2023/08/01 08:37:40;;;;;;;5.90;3.50;;;;;;;23.31;53.64;97922.55;223220;181;137602;-61
2023/08/01 08:42:45;;;;;;;10.00;7.00;;;;;;;23.37;53.58;97922.05;223427;182;146788;-62
2023/08/01 08:47:55;;;;;;;6.10;2.50;;;;;;;23.42;53.86;97925.75;223376;182;139796;-61
2023/08/01 08:52:58;;;;;;;7.60;2.90;;;;;;;23.42;54.52;97927.42;223377;181;137089;-61
2023/08/01 08:58:03;;;;;;;7.10;2.80;;;;;;;23.41;54.36;97921.08;223536;181;145819;-61
2023/08/01 09:03:06;;;;;;;6.20;3.30;;;;;;;23.37;54.40;97916.10;223368;181;140095;-63
2023/08/01 09:08:16;;;;;;;8.70;3.90;;;;;;;23.39;55.60;97912.71;223431;181;137826;-62
2023/08/01 09:13:34;;;;;;;9.20;3.40;;;;;;;23.44;55.87;97905.17;223406;182;145841;-61
2023/08/01 09:18:53;;;;;;;7.00;3.10;;;;;;;23.45;55.67;97896.35;223308;182;139595;-61
2023/08/01 09:23:56;;;;;;;8.60;5.00;;;;;;;23.44;55.22;97890.05;223466;182;138916;-60
2023/08/01 09:28:59;;;;;;;6.80;3.00;;;;;;;23.41;55.13;97888.28;223308;182;146253;-60
2023/08/01 09:34:07;;;;;;;9.00;4.10;;;;;;;23.40;55.09;97877.86;223341;182;138670;-61
2023/08/01 09:39:16;;;;;;;6.40;3.80;;;;;;;23.42;55.19;97871.78;223453;182;136671;-62
2023/08/01 09:44:19;;;;;;;7.00;2.70;;;;;;;23.44;55.22;97872.45;223371;182;146873;-64
2023/08/01 09:49:23;;;;;;;7.50;3.10;;;;;;;23.45;55.02;97869.79;223234;182;139961;-63
2023/08/01 09:54:26;;;;;;;13.00;3.90;;;;;;;23.45;54.89;97859.72;223474;182;138192;-64
2023/08/01 09:59:30;;;;;;;51.00;36.70;;;;;;;23.45;54.86;97857.41;223489;182;147650;-62
2023/08/01 10:04:36;;;;;;;8.90;3.90;;;;;;;23.49;55.30;97852.58;223402;181;139230;-61
2023/08/01 10:09:41;;;;;;;7.90;3.50;;;;;;;23.55;55.60;97845.43;223428;182;136747;-61
2023/08/01 10:14:44;;;;;;;;;;;;;;;23.56;55.69;97846.52;223534;182;147673;-62
2023/08/01 10:19:50;;;;;;;9.10;3.20;;;;;;;23.54;55.88;97858.81;223459;182;140658;-61
2023/08/01 10:24:54;;;;;;;5.90;3.00;;;;;;;23.49;55.91;97864.73;223553;182;136871;-62
2023/08/01 10:29:59;;;;;;;8.10;3.00;;;;;;;23.47;56.39;97861.02;223471;182;147532;-61
2023/08/01 10:35:04;;;;;;;5.40;3.40;;;;;;;23.47;56.56;97864.40;223477;182;138684;-61
2023/08/01 10:40:10;;;;;;;6.00;3.00;;;;;;;23.44;56.61;97862.72;223480;182;138364;-61
2023/08/01 10:45:23;;;;;;;9.60;3.40;;;;;;;23.39;56.90;97866.77;223448;181;147851;-62
2023/08/01 10:50:30;;;;;;;4.90;3.10;;;;;;;23.34;57.17;97865.04;223455;182;139048;-62
2023/08/01 10:55:40;;;;;;;8.90;3.30;;;;;;;23.28;57.84;97862.52;223397;182;139241;-61
2023/08/01 11:00:43;;;;;;;6.50;3.40;;;;;;;23.23;58.92;97877.58;223413;181;148282;-62
2023/08/01 11:05:57;;;;;;;78.10;64.60;;;;;;;23.16;60.12;97877.77;223433;182;139527;-64
2023/08/01 11:11:00;;;;;;;13.40;9.60;;;;;;;23.03;60.94;97874.67;223444;182;138385;-64
2023/08/01 11:16:05;;;;;;;4.80;3.40;;;;;;;22.83;62.06;97874.20;223360;181;147938;-62
2023/08/01 11:21:09;;;;;;;6.30;3.20;;;;;;;22.68;63.20;97880.83;223415;182;140599;-61
2023/08/01 11:26:13;;;;;;;6.70;3.20;;;;;;;22.59;63.92;97881.53;223345;181;139191;-64
2023/08/01 11:31:16;;;;;;;3.80;2.80;;;;;;;22.54;64.50;97881.50;223409;181;148913;-66
2023/08/01 11:36:22;;;;;;;7.10;2.90;;;;;;;22.48;64.94;97877.38;223441;182;138981;-66
2023/08/01 11:41:28;;;;;;;42.30;37.80;;;;;;;22.39;65.46;97870.29;223565;181;137695;-65
2023/08/01 11:46:34;;;;;;;6.60;3.70;;;;;;;22.33;66.06;97873.54;223419;181;147561;-65
2023/08/01 11:51:40;;;;;;;5.20;3.40;;;;;;;22.28;66.42;97874.39;223380;181;138606;-65
2023/08/01 11:56:43;;;;;;;4.40;3.00;;;;;;;22.15;67.20;97875.23;223567;182;139716;-68
2023/08/01 12:04:28;;;;;;;6.10;3.50;;;;;;;22.09;67.87;97875.71;221830;191;666659;-66
2023/08/01 12:09:33;;;;;;;5.30;3.30;;;;;;;22.09;68.45;97876.72;223255;184;140443;-65
2023/08/01 12:14:40;;;;;;;7.20;4.10;;;;;;;22.09;68.86;97890.27;223357;184;144904;-66
2023/08/01 14:25:28;;;;;;;11.10;2.40;;;;;;;20.84;72.40;97856.89;221970;190;667125;-61
2023/08/01 14:30:34;;;;;;;2.90;2.30;;;;;;;20.72;72.60;97854.11;222791;187;139263;-62
2023/08/01 14:35:38;;;;;;;3.20;2.50;;;;;;;20.70;72.83;97842.41;223123;184;143720;-64
2023/08/01 14:40:41;;;;;;;3.40;2.40;;;;;;;20.77;72.83;97837.04;223236;184;139336;-63
2023/08/01 14:45:52;;;;;;;5.80;3.40;;;;;;;20.76;72.61;97839.73;223134;184;137069;-62
2023/08/01 14:50:55;;;;;;;4.10;2.60;;;;;;;20.71;72.71;97828.44;223208;184;144513;-63
2023/08/01 14:56:11;;;;;;;2.80;2.30;;;;;;;20.64;72.88;97829.10;223149;185;139067;-63
2023/08/01 15:01:16;;;;;;;39.80;30.90;;;;;;;20.60;72.92;97829.46;223300;184;136996;-62
2023/08/01 15:06:27;;;;;;;3.00;2.40;;;;;;;20.58;73.19;97822.70;223128;184;144130;-63
2023/08/01 15:11:31;;;;;;;3.50;2.50;;;;;;;20.63;73.17;97828.53;223183;184;138845;-64
2023/08/01 15:16:34;;;;;;;3.30;2.40;;;;;;;20.71;73.26;97828.10;223188;184;137477;-62
2023/08/01 15:21:37;;;;;;;3.10;2.20;;;;;;;20.77;73.19;97837.59;223097;184;146482;-64
2023/08/01 15:26:41;;;;;;;3.50;1.80;;;;;;;20.76;73.21;97850.51;222988;184;139955;-64
2023/08/01 15:31:45;;;;;;;4.90;2.20;;;;;;;20.74;73.18;97846.58;223047;184;137107;-63
2023/08/01 15:36:48;;;;;;;2.40;1.80;;;;;;;20.77;73.07;97842.41;223046;185;145966;-62
2023/08/01 15:41:52;;;;;;;2.40;2.10;;;;;;;20.73;73.08;97836.45;223158;185;138757;-63
2023/08/01 15:46:55;;;;;;;3.80;2.20;;;;;;;20.68;73.32;97823.34;223139;185;136471;-63
2023/08/01 15:51:58;;;;;;;2.80;2.00;;;;;;;20.65;73.43;97824.16;223222;184;146177;-61
2023/08/01 15:57:01;;;;;;;5.40;2.00;;;;;;;20.58;73.26;97826.23;223117;184;139917;-62
2023/08/01 16:02:05;;;;;;;3.10;1.80;;;;;;;20.57;73.49;97819.86;223189;185;138319;-62
2023/08/01 16:07:08;;;;;;;2.80;2.00;;;;;;;20.60;73.04;97812.49;223009;184;145752;-63
2023/08/01 16:12:11;;;;;;;4.00;2.10;;;;;;;20.61;72.81;97802.14;223140;184;139426;-64
2023/08/01 16:17:14;;;;;;;3.10;2.10;;;;;;;20.56;72.98;97793.52;223101;184;137191;-63
2023/08/01 16:22:17;;;;;;;2.80;2.20;;;;;;;20.46;72.72;97792.75;223253;183;145909;-62
2023/08/01 16:27:28;;;;;;;2.80;1.90;;;;;;;20.46;72.77;97788.76;223237;183;141950;-62
2023/08/01 16:32:32;;;;;;;4.20;2.30;;;;;;;20.48;72.91;97789.82;223097;182;137510;-62
2023/08/01 16:37:36;;;;;;;12.00;7.90;;;;;;;20.56;72.75;97793.03;223290;183;147910;-63
2023/08/01 16:42:39;;;;;;;3.30;2.20;;;;;;;20.62;72.50;97791.65;223400;182;139487;-62
2023/08/01 16:47:43;;;;;;;2.50;2.10;;;;;;;20.67;71.91;97799.56;223287;183;136892;-62
2023/08/01 16:52:48;;;;;;;3.30;2.10;;;;;;;20.58;72.14;97810.80;223104;183;147053;-62
2023/08/01 16:58:09;;;;;;;3.10;2.00;;;;;;;20.49;72.32;97819.38;223295;183;139056;-62
2023/08/01 17:03:13;;;;;;;80.10;64.40;;;;;;;20.40;72.50;97818.90;223337;179;138157;-62
2023/08/01 17:08:16;;;;;;;4.00;2.50;;;;;;;20.30;72.42;97811.58;223241;183;145863;-61
2023/08/01 17:13:19;;;;;;;380.90;321.80;;;;;;;20.26;72.43;97820.91;223202;183;139163;-62
2023/08/01 17:18:24;;;;;;;8.60;5.50;;;;;;;20.28;72.60;97830.97;223210;182;138070;-62
2023/08/01 17:23:27;;;;;;;3.10;2.40;;;;;;;20.19;72.87;97837.63;223189;183;145507;-61
2023/08/01 17:28:32;;;;;;;3.90;2.00;;;;;;;20.11;73.45;97837.52;222931;184;141941;-62
2023/08/01 17:33:36;;;;;;;;;;;;;;;20.09;73.68;97837.38;223110;183;137687;-60
2023/08/01 17:38:43;;;;;;;5.60;2.40;;;;;;;20.07;74.01;97836.45;223318;183;146619;-63
2023/08/01 17:43:54;;;;;;;5.00;2.40;;;;;;;20.06;73.94;97835.56;223299;183;140946;-63
2023/08/01 17:48:59;;;;;;;3.40;1.70;;;;;;;20.02;73.85;97835.54;223306;183;137621;-63
2023/08/01 17:54:03;;;;;;;5.40;2.30;;;;;;;19.96;73.84;97831.41;223361;183;145759;-63
2023/08/01 17:59:06;;;;;;;3.80;1.90;;;;;;;19.92;73.85;97829.23;223350;178;154895;-62
2023/08/01 18:04:09;;;;;;;2.50;2.00;;;;;;;19.94;73.93;97826.56;223330;181;137844;-62
2023/08/01 18:09:14;;;;;;;2.90;2.10;;;;;;;19.95;73.63;97823.30;223466;183;147754;-62
2023/08/01 18:14:17;;;;;;;2.80;2.10;;;;;;;19.95;73.56;97818.97;223323;182;140557;-62
2023/08/01 18:19:23;;;;;;;;;;;;;;;19.90;73.73;97818.40;223327;181;137697;-62
2023/08/01 18:24:26;;;;;;;121.70;107.30;;;;;;;19.89;73.83;97815.55;223421;182;145989;-63
2023/08/01 18:29:29;;;;;;;7.10;5.60;;;;;;;19.92;73.90;97805.09;223359;182;139587;-62
2023/08/01 18:34:35;;;;;;;4.10;3.00;;;;;;;19.92;73.72;97804.55;223244;182;138046;-63
2023/08/01 18:39:41;;;;;;;4.30;2.90;;;;;;;19.94;73.55;97810.08;223375;182;145711;-63
2023/08/01 18:44:44;;;;;;;5.60;3.40;;;;;;;19.91;73.57;97819.91;223339;182;139179;-63
2023/08/01 18:49:50;;;;;;;2.60;1.90;;;;;;;19.87;73.50;97821.15;223401;182;136756;-63
2023/08/01 18:54:53;;;;;;;3.50;2.40;;;;;;;19.84;73.75;97825.95;223496;181;145735;-64
2023/08/01 18:59:56;;;;;;;3.40;2.20;;;;;;;19.82;73.65;97832.94;223388;182;139587;-65
2023/08/01 20:23:59;;;;;;;4.40;2.30;;;;;;;19.20;77.08;97887.88;221441;192;666704;-63
2023/08/01 20:29:04;;;;;;;3.90;2.60;;;;;;;18.97;76.26;97896.80;222601;187;137867;-63
2023/08/01 20:34:07;;;;;;;2.70;2.20;;;;;;;18.84;76.39;97888.10;222945;185;143704;-63
2023/08/01 20:39:26;;;;;;;3.90;2.40;;;;;;;18.82;76.68;97887.36;222991;185;140653;-63
2023/08/01 20:44:32;;;;;;;4.30;2.70;;;;;;;18.90;76.55;97881.80;222972;185;136430;-63
2023/08/01 20:49:35;;;;;;;5.60;2.50;;;;;;;18.91;76.90;97875.22;223171;184;144461;-63
2023/08/01 20:54:38;;;;;;;3.40;2.50;;;;;;;18.90;76.60;97852.30;223242;183;138632;-63
2023/08/01 20:59:42;;;;;;;5.60;2.50;;;;;;;18.93;77.00;97845.45;223259;183;137796;-63
2023/08/01 21:04:45;;;;;;;3.50;2.40;;;;;;;18.96;77.23;97840.45;223153;184;144192;-63
2023/08/01 21:09:48;;;;;;;4.10;2.80;;;;;;;18.96;77.23;97849.65;223277;183;138981;-62
2023/08/01 21:14:52;;;;;;;4.20;2.80;;;;;;;18.95;77.60;97865.02;223068;184;137390;-61
2023/08/01 21:19:56;;;;;;;4.70;3.00;;;;;;;18.97;77.66;97870.45;223275;184;146394;-62
2023/08/01 21:25:00;;;;;;;4.90;3.20;;;;;;;18.95;77.60;97880.35;223145;183;139815;-62
2023/08/01 21:30:04;;;;;;;8.30;3.20;;;;;;;18.98;77.74;97883.08;223184;184;140266;-61
2023/08/01 21:35:07;;;;;;;4.60;3.30;;;;;;;19.05;77.87;97901.44;223022;183;145830;-62
2023/08/01 21:40:11;;;;;;;7.30;3.40;;;;;;;19.15;77.42;97915.98;223223;184;139464;-63
2023/08/01 21:45:16;;;;;;;6.50;3.40;;;;;;;19.24;77.16;97906.45;223229;184;137536;-62
2023/08/01 21:50:20;;;;;;;4.00;2.70;;;;;;;19.21;76.69;97900.38;223179;184;146450;-62
2023/08/01 21:55:24;;;;;;;5.00;2.70;;;;;;;19.20;76.43;97904.20;223150;184;138934;-62
2023/08/01 22:00:28;;;;;;;5.20;2.90;;;;;;;19.18;76.41;97895.70;223123;183;138243;-62
2023/08/01 22:05:31;;;;;;;5.00;2.90;;;;;;;19.21;76.11;97883.25;223076;184;146349;-62
2023/08/01 22:10:35;;;;;;;3.80;2.70;;;;;;;19.18;75.89;97885.66;223107;184;138968;-62
2023/08/01 22:15:42;;;;;;;3.10;2.40;;;;;;;19.14;75.98;97880.86;223157;184;137122;-63
2023/08/01 22:20:55;;;;;;;5.80;2.80;;;;;;;19.07;76.11;97878.23;223010;184;146493;-63
2023/08/01 22:25:58;;;;;;;5.40;2.90;;;;;;;19.08;76.04;97876.83;223021;183;139172;-61
2023/08/01 22:31:01;;;;;;;5.00;3.00;;;;;;;19.11;75.99;97883.88;223432;182;136265;-61
2023/08/01 22:36:08;;;;;;;4.10;2.80;;;;;;;19.11;76.07;97890.83;223398;182;145889;-61
2023/08/01 22:41:16;;;;;;;7.20;2.60;;;;;;;19.03;76.14;97893.46;223347;182;139067;-61
2023/08/01 22:46:19;;;;;;;4.10;2.90;;;;;;;19.00;76.43;97894.29;223346;182;138342;-61
2023/08/01 22:51:23;;;;;;;4.80;3.00;;;;;;;19.01;76.43;97887.02;223204;182;144938;-62
2023/08/01 22:56:26;;;;;;;5.50;3.30;;;;;;;19.02;76.71;97887.77;223371;181;140628;-60
2023/08/01 23:01:32;;;;;;;6.40;2.80;;;;;;;19.07;76.79;97886.80;223314;182;139772;-62
2023/08/01 23:06:54;;;;;;;3.40;2.60;;;;;;;19.11;76.22;97888.39;223360;181;145951;-62
2023/08/01 23:11:57;;;;;;;4.10;2.30;;;;;;;19.11;76.18;97891.05;223068;181;138683;-63
2023/08/01 23:17:01;;;;;;;4.00;2.70;;;;;;;19.12;76.16;97885.67;223499;181;139121;-64
2023/08/01 23:22:07;;;;;;;3.90;2.30;;;;;;;19.16;76.05;97875.19;223420;182;147813;-62
2023/08/01 23:27:10;;;;;;;3.90;2.60;;;;;;;19.20;75.90;97874.96;223369;182;140810;-64
2023/08/01 23:32:13;;;;;;;5.20;2.70;;;;;;;19.20;75.52;97878.73;223544;182;139084;-63
2023/08/01 23:37:17;;;;;;;3.30;2.40;;;;;;;19.12;75.37;97880.34;223481;182;145881;-63
2023/08/01 23:42:20;;;;;;;3.10;2.10;;;;;;;19.09;75.37;97882.52;223426;182;138332;-64
2023/08/01 23:47:28;;;;;;;2.80;2.30;;;;;;;19.11;75.30;97881.08;223381;181;139868;-63
2023/08/01 23:52:33;;;;;;;3.50;2.50;;;;;;;19.11;75.27;97868.20;223510;182;145829;-64
2023/08/01 23:57:36;;;;;;;3.60;2.10;;;;;;;19.04;75.28;97871.01;223386;182;139263;-63
